Flight Track Log - Related Links

Times and Time Zones

All times are in EDT time to prevent confusion due to time zone crossing. See the UAL4236 flight status page for this flight to view local times or setup timezone preferences in your user account.

Time Position Orientation Groundspeed Altitude Reporting Facility
EDT Latitude Longitude Course Direction KTS MPH feet Rate Location/Type
Wed 12:36:55 PM 31.7836 -106.4300 231° Southwest 188 216 5,700  Level Albuquerque Center
Wed 12:37:36 PM 31.7608 -106.4125 147° Southeast 220 253 6,600 2,361 Climbing Albuquerque Center
Wed 12:37:56 PM 31.7411 -106.3831 128° Southeast 240 276 8,100 2,516 Climbing Albuquerque Center
Wed 12:38:38 PM 31.7164 -106.3342 121° Southeast 245 282 9,200 1,522 Climbing Albuquerque Center
Wed 12:39:03 PM 31.6992 -106.3061 126° Southeast 286 329 9,800 1,452 Climbing Albuquerque Center
Wed 12:39:40 PM 31.6694 -106.2536 124° Southeast 296 341 10,700 1,394 Climbing Albuquerque Center
Wed 12:40:00 PM 31.7271 -105.7564 100° East  Level FlightAware Approximate
Wed 12:40:42 PM 31.6608 -106.1406 95° East 352 405 12,100  Level Albuquerque Center
Wed 12:41:00 PM 31.7122 -105.6340 96° East  Level FlightAware Approximate
Wed 12:41:44 PM 31.6528 -106.0164 94° East 380 437 13,600  Level Albuquerque Center
Wed 12:42:46 PM 31.6433 -105.8858 95° East 400 460 14,900 1,306 Climbing Albuquerque Center
Wed 12:43:48 PM 31.6344 -105.7483 94° East 419 482 16,300 1,355 Climbing Albuquerque Center
Wed 12:44:50 PM 31.6244 -105.6108 95° East 423 487 17,700 1,597 Climbing Albuquerque Center
Wed 12:45:52 PM 31.6125 -105.4431 95° East 430 495 19,600 1,645 Climbing Albuquerque Center
Wed 12:46:54 PM 31.6039 -105.3014 94° East 432 497 21,100 1,452 Climbing Albuquerque Center
Wed 12:47:56 PM 31.5939 -105.1606 95° East 433 498 22,600 1,403 Climbing Albuquerque Center
Wed 12:48:58 PM 31.5839 -105.0175 95° East 436 502 24,000 1,355 Climbing Albuquerque Center
Wed 12:50:00 PM 31.5736 -104.8728 95° East 436 502 25,400 1,161 Climbing Albuquerque Center
Wed 12:51:02 PM 31.5631 -104.7317 95° East 438 504 26,400 919 Climbing Albuquerque Center
Wed 12:52:04 PM 31.5517 -104.5850 95° East 443 510 27,300 919 Climbing Albuquerque Center
Wed 12:53:06 PM 31.5381 -104.4039 95° East 453 521 28,300 968 Climbing Albuquerque Center
Wed 12:54:08 PM 31.5256 -104.2511 95° East 461 531 29,300 968 Climbing Albuquerque Center
Wed 12:55:10 PM 31.5136 -104.0944 95° East 471 542 30,300 968 Climbing Albuquerque Center
Wed 12:56:12 PM 31.5011 -103.9378 95° East 477 549 31,300 919 Climbing Albuquerque Center
Wed 12:57:14 PM 31.4878 -103.7797 96° East 482 555 32,200 823 Climbing Albuquerque Center
Wed 12:58:16 PM 31.4725 -103.5914 95° East 489 563 33,000 387 Climbing Albuquerque Center
Wed 12:59:18 PM 31.4494 -103.4256 99° East 507 583 33,000  Level Albuquerque Center
Wed 01:00:20 PM 31.4281 -103.2517 98° East 523 602 33,000  Level Albuquerque Center
Wed 01:01:22 PM 31.4056 -103.0711 98° East 544 626 33,000  Level Albuquerque Center
Wed 01:02:25 PM 31.3828 -102.8903 98° East 555 639 33,000 -48 Level Albuquerque Center
Wed 01:03:27 PM 31.3600 -102.7061 98° East 568 654 32,900  Descending Albuquerque Center
Wed 01:04:29 PM 31.3322 -102.4911 99° East 573 659 33,000 48 Climbing Albuquerque Center
Wed 01:05:31 PM 31.3089 -102.3075 98° East 576 663 33,000  Level Albuquerque Center
Wed 01:06:33 PM 31.2847 -102.1281 99° East 566 651 33,000  Level Albuquerque Center
Wed 01:07:35 PM 31.2603 -101.9475 99° East 565 650 33,000  Level Albuquerque Center
Wed 01:08:37 PM 31.2331 -101.7444 99° East 560 644 33,000  Level Albuquerque Center
Wed 01:10:20 PM 31.1944 -101.4589 99° East 560 644 33,000  Level Houston Center
Wed 01:11:22 PM 31.1658 -101.2517 99° East 558 642 33,000 -48 Level Houston Center
Wed 01:12:24 PM 31.1414 -101.0714 99° East 561 646 32,900  Descending Houston Center
Wed 01:13:26 PM 31.1169 -100.8922 99° East 560 644 33,000 48 Climbing Houston Center
Wed 01:14:28 PM 31.0908 -100.7139 100° East 559 643 33,000 -97 Level Houston Center
Wed 01:15:30 PM 31.0642 -100.5386 100° East 551 634 32,800 -726 Descending Houston Center
Wed 01:16:32 PM 31.0392 -100.3667 100° East 538 619 31,500 -1,355 Descending Houston Center
Wed 01:17:34 PM 31.0164 -100.2042 99° East 515 593 30,000 -1,268 Descending Houston Center
Wed 01:18:35 PM 30.9861 -100.0117 100° East 505 581 28,900 -488 Descending Houston Center
Wed 01:19:37 PM 30.9625 -99.8447 99° East 517 595 29,000 -48 Climbing Houston Center
Wed 01:20:39 PM 30.9367 -99.6789 100° East 519 597 28,800 -532 Descending Houston Center
Wed 01:21:41 PM 30.9319 -99.5150 92° East 511 588 27,900 -871 Descending Houston Center
Wed 01:22:43 PM 30.9278 -99.3478 92° East 514 592 27,000 -435 Descending Houston Center
Wed 01:23:45 PM 30.9247 -99.1833 91° East 508 585 27,000  Level Houston Center
Wed 01:24:47 PM 30.9194 -98.9883 92° East 510 587 27,000  Level Houston Center
Wed 01:25:49 PM 30.9150 -98.8228 92° East 507 583 27,000  Level Houston Center
Wed 01:26:51 PM 30.9117 -98.6572 91° East 508 585 27,000  Level Houston Center
Wed 01:27:52 PM 30.9067 -98.4919 92° East 509 586 27,000  Level Houston Center
Wed 01:28:54 PM 30.9025 -98.3267 92° East 507 583 27,000  Level Houston Center
Wed 01:29:56 PM 30.8972 -98.1600 92° East 512 589 27,000  Level Houston Center
Wed 01:30:58 PM 30.8931 -97.9944 92° East 508 585 27,000  Level Houston Center
Wed 01:32:00 PM 30.8867 -97.8292 93° East 509 586 27,000  Level Houston Center
Wed 01:33:02 PM 30.8806 -97.6375 92° East 506 582 27,000  Level Houston Center
Wed 01:34:04 PM 30.8744 -97.4728 92° East 508 585 27,000  Level Houston Center
Wed 01:35:06 PM 30.8733 -97.3036 90° East 507 583 27,000  Level Houston Center
Wed 01:36:08 PM 30.8908 -97.1489 82° East 523 602 27,000 -387 Level Houston Center
Wed 01:37:10 PM 30.9133 -96.9667 82° East 481 554 26,200 -871 Descending Houston Center
Wed 01:38:12 PM 30.9297 -96.8211 82° East 455 524 25,200 -968 Descending Houston Center
Wed 01:39:14 PM 30.9467 -96.6781 82° East 443 510 24,200 -677 Descending Houston Center
Wed 01:40:16 PM 30.9633 -96.5417 82° East 427 491 23,800 -871 Descending Houston Center
Wed 01:41:18 PM 30.9333 -96.4161 106° East 409 471 22,400 -1,403 Descending Houston Center
Wed 01:42:20 PM 30.8556 -96.3242 135° Southeast 400 460 20,900 -1,839 Descending Houston Center
Wed 01:43:22 PM 30.7800 -96.2372 135° Southeast 382 440 18,600 -2,177 Descending Houston Center
Wed 01:44:24 PM 30.7058 -96.1528 136° Southeast 371 427 16,400 -2,226 Descending Houston Center
Wed 01:45:26 PM 30.6169 -96.0500 135° Southeast 383 441 14,000 -2,118 Descending Houston Center
Wed 01:45:49 PM 30.5883 -96.0169 135° Southeast 382 440 13,400 -1,548 Descending Houston Center
Wed 01:46:28 PM 30.5517 -95.9761 136° Southeast 367 422 12,400 -1,865 Descending Houston Center
Wed 01:47:03 PM 30.5069 -95.9247 135° Southeast 321 369 11,100 -1,742 Descending Houston Center
Wed 01:47:30 PM 30.4892 -95.9044 135° Southeast 320 368 10,600 -1,082 Descending Houston Center
Wed 01:48:04 PM 30.4486 -95.8586 136° Southeast 265 305 10,000 -581 Descending Houston Center
Wed 01:48:32 PM 30.4347 -95.8433 137° Southeast 278 320 10,000 -295 Level Houston Center
Wed 01:49:05 PM 30.3869 -95.8247 161° South 248 285 9,700 -968 Descending Houston Center
Wed 01:49:34 PM 30.3556 -95.8264 183° South 255 293 9,000 -1,475 Descending Houston Center
Wed 01:50:06 PM 30.3139 -95.8308 185° South 253 291 8,200 -968 Descending Houston Center
Wed 01:50:36 PM 30.2881 -95.8311 181° South 244 281 8,000 -197 Descending Houston Center
Wed 01:51:07 PM 30.2469 -95.8336 183° South 244 281 8,000  Level Houston Center
Wed 01:51:38 PM 30.2197 -95.8356 184° South 246 283 8,000 -98 Level Houston Center
Wed 01:52:08 PM 30.1761 -95.8394 184° South 250 288 7,900 -484 Descending Houston Center
Wed 01:52:40 PM 30.1544 -95.8217 145° Southeast 257 296 7,500 -1,377 Descending Houston Center
Wed 01:53:09 PM 30.1194 -95.7906 142° Southeast 248 285 6,500 -1,548 Descending Houston Center
Wed 01:53:42 PM 30.1011 -95.7711 137° Southeast 247 284 5,900 -1,574 Descending Houston Center
Wed 01:54:10 PM 30.0722 -95.7308 130° Southeast 239 275 4,900 -1,548 Descending Houston Center
Wed 01:54:44 PM 30.0528 -95.7003 126° Southeast 235 270 4,300 -774 Descending Houston Center
Wed 01:55:12 PM 30.0383 -95.6794 129° Southeast 192 221 4,100 -286 Descending Houston Center
Wed 01:55:47 PM 30.0222 -95.6533 125° Southeast 193 222 4,000 -98 Descending Houston Center
Wed 01:56:13 PM 30.0067 -95.6300 128° Southeast 176 203 4,000  Level Houston Center
Wed 01:56:49 PM 29.9950 -95.6053 119° Southeast 181 208 4,000 -295 Level Houston Center
Wed 01:57:14 PM 29.9911 -95.5739 98° East 197 227 3,700 -677 Descending Houston Center
Wed 01:57:51 PM 29.9928 -95.5439 86° East 192 221 3,300 -968 Descending Houston Center
Wed 01:58:16 PM 29.9919 -95.5136 92° East 178 205 2,700 -968 Descending Houston Center
Wed 01:58:53 PM 29.9936 -95.4858 86° East 186 214 2,300 -871 Descending Houston Center
Wed 01:59:18 PM 29.9931 -95.4581 91° East 174 200 1,800 -1,200 Descending Houston Center

Login

Don't have an account? Register now (free) for customized features, flight alerts, and more!